Time;durP1;ratioP1;P1;durP2;ratioP2;P2;SDS_P1;SDS_P2;PMS_P1;PMS_P2;Temp;Humidity;BMP_temperature;BMP_pressure;BME280_temperature;BME280_humidity;BME280_pressure;Samples;Min_cycle;Max_cycle;Signal;HPM_P1;HPM_P2
2022/04/18 00:00:08;;;;;;;3.45;1.92;;;;;;;20.72;34.32;101938.44;5015457;28;20030;-61
2022/04/18 00:02:35;;;;;;;3.83;2.05;;;;;;;20.69;34.19;101941.31;5016778;28;20110;-61
2022/04/18 00:05:00;;;;;;;3.53;2.00;;;;;;;20.69;34.24;101933.38;5015249;28;20168;-61
2022/04/18 00:07:25;;;;;;;3.92;2.05;;;;;;;20.68;34.32;101936.13;5016583;28;20148;-61
2022/04/18 00:09:52;;;;;;;4.10;2.20;;;;;;;20.66;34.12;101930.94;5016175;28;20022;-61
2022/04/18 00:12:17;;;;;;;3.47;1.80;;;;;;;20.63;34.25;101924.06;5015580;28;20264;-62
2022/04/18 00:14:44;;;;;;;4.50;1.88;;;;;;;20.61;34.14;101920.66;5016198;28;20501;-61
2022/04/18 00:17:09;;;;;;;4.10;1.83;;;;;;;20.61;34.43;101928.59;5015679;28;20046;-60
2022/04/18 00:19:38;;;;;;;4.57;2.00;;;;;;;20.60;34.19;101926.94;5015647;28;20033;-61
2022/04/18 00:22:04;;;;;;;4.18;2.10;;;;;;;20.58;34.31;101925.34;5016041;28;20033;-60
2022/04/18 00:24:30;;;;;;;3.60;2.00;;;;;;;20.55;34.45;101923.75;5016238;28;20044;-60
2022/04/18 00:26:55;;;;;;;3.53;1.90;;;;;;;20.56;34.42;101919.34;5015101;28;20124;-60
2022/04/18 00:29:20;;;;;;;4.40;2.20;;;;;;;20.54;34.16;101924.75;5015856;28;20022;-60
2022/04/18 00:31:46;;;;;;;3.80;2.00;;;;;;;20.54;34.30;101921.25;5016039;28;20283;-60
2022/04/18 00:34:11;;;;;;;4.45;1.95;;;;;;;20.52;34.33;101928.44;5014912;28;20280;-60
2022/04/18 00:36:36;;;;;;;6.40;2.30;;;;;;;20.51;34.28;101930.28;5015973;28;20129;-60
2022/04/18 00:39:02;;;;;;;3.65;2.03;;;;;;;20.50;34.52;101925.09;5014905;28;20030;-60
2022/04/18 00:41:27;;;;;;;4.15;1.92;;;;;;;20.50;34.33;101933.03;5015891;28;20426;-61
2022/04/18 00:43:53;;;;;;;4.32;2.30;;;;;;;20.49;34.33;101929.53;5015375;28;20026;-61
2022/04/18 00:46:20;;;;;;;4.07;2.05;;;;;;;20.47;34.35;101926.16;5015107;28;20492;-61
2022/04/18 00:48:46;;;;;;;4.03;2.30;;;;;;;20.45;34.34;101923.59;5015772;28;20045;-61
2022/04/18 00:51:14;;;;;;;5.47;2.30;;;;;;;20.44;34.40;101924.59;5015551;28;20029;-61
2022/04/18 00:53:41;;;;;;;3.97;2.10;;;;;;;20.43;34.33;101922.88;5014857;28;20478;-61
2022/04/18 00:56:09;;;;;;;4.45;2.20;;;;;;;20.42;34.29;101928.28;5015116;28;20482;-61
2022/04/18 00:58:36;;;;;;;3.83;2.10;;;;;;;20.41;34.29;101929.25;5015127;28;20046;-61
2022/04/18 01:01:02;;;;;;;3.30;1.92;;;;;;;20.39;34.19;101924.06;5014520;28;20048;-61
2022/04/18 01:03:30;;;;;;;4.40;2.05;;;;;;;20.39;34.29;101923.22;5015335;28;20474;-61
2022/04/18 01:05:59;;;;;;;3.92;2.15;;;;;;;20.37;34.43;101915.41;5014839;28;20397;-61
2022/04/18 01:08:25;;;;;;;3.70;1.90;;;;;;;20.36;34.79;101915.50;5014360;28;20452;-61
2022/04/18 01:10:51;;;;;;;3.70;2.08;;;;;;;20.34;34.38;101909.50;5014006;28;20108;-61
2022/04/18 01:13:17;;;;;;;4.03;2.10;;;;;;;20.33;34.29;101908.66;5015274;28;20021;-61
2022/04/18 01:15:42;;;;;;;3.53;2.00;;;;;;;20.33;34.33;101907.78;5014176;28;20045;-61
2022/04/18 01:18:07;;;;;;;3.87;2.10;;;;;;;20.32;34.43;101914.91;5014913;28;20844;-61
2022/04/18 01:20:34;;;;;;;4.70;2.13;;;;;;;20.33;34.28;101915.72;5015120;28;20783;-61
2022/04/18 01:23:01;;;;;;;3.60;1.73;;;;;;;20.30;34.19;101912.38;5013967;28;20271;-62
2022/04/18 01:30:58;;;;;;;5.22;2.00;;;;;;;20.28;34.23;101913.44;5014983;28;20389;-61
2022/04/18 01:33:23;;;;;;;3.70;1.92;;;;;;;20.26;34.32;101916.19;5014760;28;20493;-61
2022/04/18 01:35:48;;;;;;;3.58;1.83;;;;;;;20.23;34.35;101916.41;5013567;28;20022;-60
2022/04/18 01:38:20;;;;;;;3.70;1.93;;;;;;;20.22;34.25;101908.56;5014713;28;20037;-62
2022/04/18 01:40:45;;;;;;;3.70;1.80;;;;;;;20.22;34.18;101908.56;5014871;28;20441;-61
2022/04/18 01:43:10;;;;;;;3.43;1.87;;;;;;;20.21;34.05;101906.91;5013763;28;20510;-61
2022/04/18 01:45:35;;;;;;;4.67;2.03;;;;;;;20.18;34.26;101917.72;5014653;28;20267;-61
2022/04/18 01:48:01;;;;;;;3.72;2.00;;;;;;;20.18;34.09;101913.25;5014298;28;20279;-61
2022/04/18 01:50:27;;;;;;;3.95;1.83;;;;;;;20.16;34.22;101915.19;5013709;28;20429;-61
2022/04/18 01:52:52;;;;;;;3.92;1.92;;;;;;;20.16;34.19;101901.13;5014311;28;20053;-61
2022/04/18 01:55:17;;;;;;;3.95;1.98;;;;;;;20.14;34.23;101906.53;5014701;28;20450;-61
2022/04/18 01:57:43;;;;;;;3.60;1.90;;;;;;;20.13;34.15;101904.81;5013833;28;20466;-61
2022/04/18 02:00:09;;;;;;;3.65;1.90;;;;;;;20.11;34.30;101902.28;5014042;28;20034;-61
2022/04/18 02:02:34;;;;;;;4.28;1.88;;;;;;;20.10;33.92;101897.09;5014330;28;20053;-61
2022/04/18 02:05:00;;;;;;;3.58;1.80;;;;;;;20.09;34.18;101896.25;5013133;28;20474;-61
2022/04/18 02:07:26;;;;;;;3.05;1.75;;;;;;;20.09;34.21;101895.41;5014272;28;20540;-61
2022/04/18 02:09:51;;;;;;;3.92;1.70;;;;;;;20.07;34.58;101894.69;5013898;28;20421;-61
2022/04/18 02:12:17;;;;;;;3.80;1.80;;;;;;;20.05;34.30;101892.13;5013645;28;20028;-61
2022/04/18 02:14:42;;;;;;;3.10;1.80;;;;;;;20.03;34.11;101893.22;5014454;28;20268;-61
2022/04/18 02:17:07;;;;;;;3.22;1.80;;;;;;;20.03;34.13;101895.88;5014071;28;20761;-62
2022/04/18 02:19:32;;;;;;;4.15;1.80;;;;;;;20.03;34.13;101893.22;5013546;28;20017;-61
2022/04/18 02:21:58;;;;;;;3.53;1.80;;;;;;;20.01;34.20;101887.19;5013737;28;20421;-62
2022/04/18 02:24:29;;;;;;;3.37;1.70;;;;;;;20.01;34.18;101890.69;5014030;28;20084;-60
2022/04/18 02:26:54;;;;;;;3.38;1.75;;;;;;;20.00;33.90;101888.16;5013304;28;20290;-61
2022/04/18 02:29:19;;;;;;;3.63;1.80;;;;;;;19.99;34.11;101889.09;5014240;28;20502;-61
2022/04/18 02:34:32;;;;;;;3.60;1.75;;;;;;;20.00;34.00;101886.34;5014094;28;20033;-60
2022/04/18 02:36:57;;;;;;;4.15;1.90;;;;;;;20.00;34.04;101872.28;5013648;28;20418;-60
2022/04/18 02:39:22;;;;;;;4.25;2.00;;;;;;;20.00;34.01;101883.69;5013077;28;20018;-60
2022/04/18 02:41:47;;;;;;;3.67;1.90;;;;;;;19.98;34.01;101875.03;5013730;28;20033;-60
2022/04/18 02:44:13;;;;;;;4.10;2.10;;;;;;;19.97;33.92;101877.78;5013374;28;20310;-60
2022/04/18 02:46:38;;;;;;;3.42;1.77;;;;;;;19.94;34.08;101868.28;5012734;28;20064;-61
2022/04/18 02:49:03;;;;;;;3.40;1.90;;;;;;;19.93;34.06;101871.88;5013336;28;20037;-61
2022/04/18 02:51:38;;;;;;;2.97;1.60;;;;;;;19.90;34.16;101861.50;5013364;28;20283;-61
2022/04/18 02:54:03;;;;;;;3.22;1.73;;;;;;;19.92;33.98;101864.91;5012263;28;20671;-61
2022/04/18 02:56:28;;;;;;;3.30;1.60;;;;;;;19.91;33.89;101864.03;5013120;28;20045;-61
2022/04/18 02:58:53;;;;;;;3.42;1.90;;;;;;;19.88;33.99;101858.97;5013120;28;20076;-61
2022/04/18 03:01:19;;;;;;;3.05;1.60;;;;;;;19.89;34.03;101858.03;5012355;28;20119;-61
2022/04/18 03:03:44;;;;;;;3.43;1.57;;;;;;;19.89;34.16;101852.72;5013192;28;20113;-61
2022/04/18 03:06:10;;;;;;;3.42;1.70;;;;;;;19.88;34.15;101848.38;5013119;28;20303;-61
2022/04/18 03:08:38;;;;;;;3.72;1.77;;;;;;;19.87;34.01;101848.53;5012430;28;20030;-61
2022/04/18 03:11:04;;;;;;;3.63;1.75;;;;;;;19.85;34.06;101848.63;5013155;28;20033;-61
2022/04/18 03:13:32;;;;;;;4.25;1.80;;;;;;;19.85;34.17;101847.78;5013140;28;20026;-61
2022/04/18 03:15:58;;;;;;;3.00;1.60;;;;;;;19.85;33.96;101846.00;5011723;28;20409;-61
2022/04/18 03:18:23;;;;;;;3.83;1.70;;;;;;;19.83;34.00;101842.59;5013312;28;20022;-61
2022/04/18 03:20:49;;;;;;;3.80;1.70;;;;;;;19.81;34.14;101846.31;5012244;28;20381;-61
2022/04/18 03:23:17;;;;;;;3.97;2.07;;;;;;;19.81;34.05;101843.69;5013110;28;20541;-61
2022/04/18 03:25:42;;;;;;;3.95;1.98;;;;;;;19.80;34.10;101842.81;5013157;28;20267;-62
2022/04/18 03:28:09;;;;;;;5.67;2.40;;;;;;;19.78;33.91;101841.25;5011962;28;20188;-61
2022/04/18 03:30:37;;;;;;;4.38;2.10;;;;;;;19.78;34.12;101844.72;5013003;28;20680;-61
2022/04/18 03:33:03;;;;;;;4.72;2.60;;;;;;;19.79;33.98;101848.22;5013430;28;20054;-61
2022/04/18 03:35:28;;;;;;;4.88;2.53;;;;;;;19.77;34.00;101844.84;5018671;28;20482;-61
2022/04/18 03:40:37;;;;;;;5.68;3.25;;;;;;;19.74;33.46;101852.03;5019478;28;20029;-60
2022/04/18 03:43:03;;;;;;;5.75;2.80;;;;;;;19.73;33.94;101850.31;5018237;28;20030;-60
2022/04/18 03:45:29;;;;;;;5.03;2.58;;;;;;;19.72;33.81;101851.25;5019202;28;20061;-61
2022/04/18 03:47:56;;;;;;;5.03;2.40;;;;;;;19.72;33.86;101850.44;5019170;28;20044;-62
2022/04/18 03:50:22;;;;;;;4.95;2.75;;;;;;;19.71;33.63;101851.38;5018713;28;20267;-61
2022/04/18 03:52:47;;;;;;;5.93;3.07;;;;;;;19.69;33.73;101845.38;5019116;28;20540;-61
2022/04/18 03:55:12;;;;;;;5.20;3.00;;;;;;;19.68;33.94;101843.69;5018673;28;20369;-61
2022/04/18 03:57:37;;;;;;;5.70;2.65;;;;;;;19.68;34.00;101847.19;5018292;28;20283;-61
2022/04/18 04:00:07;;;;;;;6.43;3.05;;;;;;;19.67;33.94;101844.63;5018960;28;20410;-62
2022/04/18 04:02:32;;;;;;;6.38;3.10;;;;;;;19.66;33.91;101840.28;5019100;28;20036;-62
2022/04/18 04:04:58;;;;;;;5.72;3.42;;;;;;;19.68;33.79;101848.97;5018187;28;20452;-61
2022/04/18 04:07:23;;;;;;;6.28;3.78;;;;;;;19.66;33.65;101845.59;5018975;28;20026;-61
2022/04/18 04:09:48;;;;;;;5.95;3.45;;;;;;;19.66;33.72;101845.59;5018727;28;20385;-62
2022/04/18 04:12:14;;;;;;;6.00;3.50;;;;;;;19.65;33.72;101842.09;5018688;28;20083;-61
2022/04/18 04:14:39;;;;;;;7.43;4.00;;;;;;;19.64;33.59;101839.56;5019233;28;20370;-61
2022/04/18 04:17:04;;;;;;;7.22;3.75;;;;;;;19.63;33.96;101841.38;5017810;28;20049;-61
2022/04/18 04:19:30;;;;;;;6.72;3.75;;;;;;;19.64;33.82;101835.13;5019129;28;20030;-61
2022/04/18 04:21:55;;;;;;;6.93;3.67;;;;;;;19.64;33.71;101836.94;5018760;28;20080;-60
2022/04/18 04:24:21;;;;;;;6.80;3.90;;;;;;;19.63;33.56;101835.22;5018220;28;20267;-61
2022/04/18 04:26:47;;;;;;;6.90;4.30;;;;;;;19.62;33.76;101838.84;5017957;28;20042;-61
2022/04/18 04:29:13;;;;;;;6.90;3.85;;;;;;;19.60;33.60;101838.94;5018677;28;20072;-62
2022/04/18 04:31:38;;;;;;;6.63;4.47;;;;;;;19.60;33.78;101838.94;5018274;28;20054;-61
2022/04/18 04:34:03;;;;;;;7.50;4.30;;;;;;;19.57;33.75;101837.38;5018758;28;20057;-62
2022/04/18 04:36:29;;;;;;;7.07;4.60;;;;;;;19.57;33.78;101833.88;5018812;28;20080;-61
2022/04/18 04:38:54;;;;;;;6.43;4.05;;;;;;;19.57;33.71;101839.16;5017807;28;20275;-62
2022/04/18 04:41:20;;;;;;;7.18;4.68;;;;;;;19.56;34.04;101835.66;5019183;28;20037;-62
2022/04/18 04:43:45;;;;;;;7.67;4.93;;;;;;;19.55;33.81;101841.94;5018633;28;20392;-61
2022/04/18 04:46:10;;;;;;;7.50;4.80;;;;;;;19.55;33.55;101835.78;5014256;28;20366;-61
2022/04/18 04:48:35;;;;;;;8.35;4.85;;;;;;;19.55;33.63;101836.63;5015715;28;20283;-61
2022/04/18 04:51:00;;;;;;;7.93;5.00;;;;;;;19.55;33.43;101841.06;5015404;28;20485;-61
2022/04/18 04:53:29;;;;;;;8.50;5.20;;;;;;;19.54;33.76;101840.22;5014643;28;20259;-60
2022/04/18 04:55:54;;;;;;;8.00;5.00;;;;;;;19.54;33.72;101837.59;5015025;28;20279;-61
2022/04/18 04:58:19;;;;;;;8.57;5.07;;;;;;;19.53;33.68;101838.53;5015462;28;20018;-61
2022/04/18 05:00:44;;;;;;;7.28;4.78;;;;;;;19.53;33.96;101841.16;5014781;28;20282;-61
2022/04/18 05:03:12;;;;;;;7.68;5.20;;;;;;;19.53;33.64;101835.88;5015172;28;20493;-61
2022/04/18 05:05:39;;;;;;;7.50;4.90;;;;;;;19.53;33.61;101842.97;5015260;28;20022;-61
2022/04/18 05:08:10;;;;;;;7.78;5.28;;;;;;;19.51;33.54;101843.09;5014142;28;20036;-61
2022/04/18 05:10:36;;;;;;;7.55;5.20;;;;;;;19.51;33.71;101844.91;5015065;28;20029;-61
2022/04/18 05:13:01;;;;;;;8.35;5.32;;;;;;;19.52;33.62;101844.78;5014953;28;20033;-60
2022/04/18 05:15:28;;;;;;;7.17;4.53;;;;;;;19.52;33.57;101849.25;5014273;28;20038;-61
2022/04/18 05:17:53;;;;;;;8.85;5.35;;;;;;;19.56;33.93;101848.06;5014682;28;20306;-61
2022/04/18 05:20:18;;;;;;;8.75;5.20;;;;;;;19.60;33.86;101848.66;5014888;28;20037;-61
2022/04/18 05:22:47;;;;;;;7.30;5.22;;;;;;;19.63;34.05;101844.03;5014171;28;20109;-61
2022/04/18 05:25:12;;;;;;;7.85;4.97;;;;;;;19.67;34.64;101849.94;5014532;28;20108;-61
2022/04/18 05:27:37;;;;;;;7.20;4.30;;;;;;;19.71;35.12;101846.09;5014113;28;20141;-61
2022/04/18 05:30:06;;;;;;;7.38;4.55;;;;;;;19.76;35.41;101854.59;5014692;28;20132;-61
2022/04/18 05:32:31;;;;;;;7.03;4.32;;;;;;;19.79;35.35;101850.84;5014830;28;20497;-61
2022/04/18 05:34:56;;;;;;;6.97;4.63;;;;;;;19.81;35.50;101854.25;5013787;28;20041;-61
2022/04/18 05:37:22;;;;;;;7.00;4.60;;;;;;;19.81;35.83;101852.44;5014582;28;20040;-61
2022/04/18 05:39:47;;;;;;;8.00;4.47;;;;;;;19.83;35.65;101860.28;5014445;28;20259;-61
2022/04/18 05:42:12;;;;;;;6.93;4.47;;;;;;;19.85;35.97;101863.66;5013724;28;20486;-61
2022/04/18 05:44:40;;;;;;;6.43;4.03;;;;;;;19.89;36.01;101859.84;5014639;28;20030;-61
2022/04/18 05:47:06;;;;;;;7.82;4.25;;;;;;;19.91;36.07;101858.75;5014166;28;20279;-61
2022/04/18 05:49:31;;;;;;;7.55;4.30;;;;;;;19.96;36.22;101863.69;5013763;28;20033;-60
2022/04/18 05:51:56;;;;;;;5.80;3.88;;;;;;;20.02;35.67;101857.97;5014215;28;20030;-60
2022/04/18 05:54:21;;;;;;;5.78;3.95;;;;;;;20.08;35.73;101861.97;5014488;28;20385;-60
2022/04/18 05:56:47;;;;;;;6.13;4.13;;;;;;;20.11;35.57;101859.09;5013439;28;20026;-61
2022/04/18 05:59:12;;;;;;;5.40;3.03;;;;;;;20.14;35.82;101866.81;5014236;28;20054;-60
2022/04/18 06:01:37;;;;;;;5.83;3.50;;;;;;;20.18;35.68;101870.06;5014205;28;20477;-60
2022/04/18 06:04:05;;;;;;;4.87;3.10;;;;;;;20.18;35.65;101862.13;5013325;28;20084;-61
2022/04/18 06:06:31;;;;;;;4.97;3.15;;;;;;;20.22;35.55;101864.44;5014136;28;20275;-61
2022/04/18 06:08:59;;;;;;;5.30;3.17;;;;;;;20.25;35.42;101868.66;5013635;28;20393;-61
2022/04/18 06:11:24;;;;;;;5.05;3.20;;;;;;;20.25;35.40;101872.16;5013450;28;20077;-61
2022/04/18 06:13:49;;;;;;;5.97;3.07;;;;;;;20.26;35.37;101870.34;5013844;28;20025;-60
2022/04/18 06:16:14;;;;;;;5.15;3.03;;;;;;;20.24;35.46;101870.47;5013777;28;20294;-61
2022/04/18 06:18:39;;;;;;;4.80;2.60;;;;;;;20.23;35.66;101873.22;5013199;28;20030;-60
2022/04/18 06:21:06;;;;;;;4.70;2.65;;;;;;;20.22;35.51;101864.44;5013651;28;20026;-60
2022/04/18 06:23:31;;;;;;;4.68;2.70;;;;;;;20.23;35.58;101865.28;5013784;28;20433;-60
2022/04/18 06:25:59;;;;;;;4.75;2.90;;;;;;;20.26;35.47;101865.06;5012875;28;20068;-60
2022/04/18 06:28:27;;;;;;;4.53;2.50;;;;;;;20.26;35.34;101863.25;5013829;28;20034;-60
2022/04/18 06:30:52;;;;;;;3.88;2.30;;;;;;;20.24;35.41;101872.28;5012787;28;20036;-59
2022/04/18 06:33:18;;;;;;;4.33;2.23;;;;;;;20.21;35.14;101867.22;5013650;28;20385;-60
2022/04/18 06:35:46;;;;;;;4.72;2.50;;;;;;;20.22;34.89;101868.88;5013594;28;20358;-60
2022/04/18 06:38:11;;;;;;;4.30;2.33;;;;;;;20.20;35.32;101865.50;5012576;28;20037;-60
2022/04/18 06:40:37;;;;;;;5.90;2.53;;;;;;;20.19;33.39;101863.84;5013741;28;20014;-62
2022/04/18 06:43:02;;;;;;;4.40;2.13;;;;;;;20.16;34.38;101856.97;5013294;28;20359;-63
2022/04/18 06:45:28;;;;;;;4.38;2.25;;;;;;;20.21;34.66;101862.75;5014219;28;20604;-66
2022/04/18 06:47:54;;;;;;;5.78;2.20;;;;;;;20.34;34.94;101860.03;5013984;28;20030;-61
2022/04/18 06:50:19;;;;;;;3.97;1.97;;;;;;;20.49;34.86;101860.69;5013606;28;20100;-64
2022/04/18 06:52:50;;;;;;;3.70;2.10;;;;;;;20.65;34.59;101866.53;5012826;28;20275;-62
2022/04/18 06:55:15;;;;;;;4.68;2.30;;;;;;;20.77;34.61;101869.22;5013971;28;20100;-64
2022/04/18 06:57:41;;;;;;;3.45;1.92;;;;;;;20.87;34.11;101864.91;5013500;28;20049;-67
2022/04/18 07:00:07;;;;;;;3.45;1.90;;;;;;;20.96;34.01;101866.81;5012462;28;20053;-65
2022/04/18 07:02:32;;;;;;;5.38;2.13;;;;;;;21.03;34.16;101859.28;5013791;28;20025;-66
2022/04/18 07:04:58;;;;;;;4.05;2.00;;;;;;;21.12;33.40;101865.66;5014770;28;20080;-67
2022/04/18 07:07:23;;;;;;;4.47;1.85;;;;;;;21.23;33.64;101863.00;5013736;28;20054;-67
2022/04/18 07:09:58;;;;;;;4.40;1.97;;;;;;;21.35;33.51;101861.19;5016987;28;20068;-69
2022/04/18 07:12:24;;;;;;;4.18;1.80;;;;;;;21.47;33.50;101862.03;5016668;28;20284;-67
2022/04/18 07:14:50;;;;;;;4.93;1.98;;;;;;;21.56;33.57;101861.31;5014529;28;20030;-62
2022/04/18 07:17:15;;;;;;;5.60;2.50;;;;;;;21.65;34.29;101859.72;5013559;28;20429;-63
2022/04/18 07:19:41;;;;;;;5.35;2.25;;;;;;;21.73;34.36;101863.47;5013428;28;20037;-62
2022/04/18 07:22:06;;;;;;;6.72;2.60;;;;;;;21.82;34.75;101864.50;5012739;28;20140;-65
2022/04/18 07:24:34;;;;;;;6.60;2.40;;;;;;;21.89;35.02;101855.09;5013293;28;20049;-64
2022/04/18 07:27:02;;;;;;;5.35;2.35;;;;;;;21.93;35.23;101851.22;5013376;28;20030;-63
2022/04/18 07:29:28;;;;;;;6.50;2.60;;;;;;;22.00;35.11;101850.72;5017345;28;20022;-67
2022/04/18 07:31:53;;;;;;;6.55;2.60;;;;;;;22.06;35.11;101847.56;5015440;28;20389;-66
2022/04/18 07:34:18;;;;;;;5.22;2.33;;;;;;;22.09;35.21;101847.31;5013468;28;20022;-63
2022/04/18 07:36:47;;;;;;;6.72;2.50;;;;;;;22.14;35.10;101847.75;5017419;28;20030;-67
2022/04/18 07:39:13;;;;;;;4.43;2.00;;;;;;;22.18;35.29;101843.06;5016515;28;20052;-64
2022/04/18 07:41:38;;;;;;;4.97;2.22;;;;;;;22.18;35.18;101843.91;5016138;28;20474;-66
2022/04/18 07:44:03;;;;;;;5.88;2.25;;;;;;;22.20;35.50;101843.75;5015217;28;20022;-64
2022/04/18 07:46:29;;;;;;;7.28;2.35;;;;;;;22.21;35.41;101846.28;5014131;28;20468;-65
2022/04/18 07:48:55;;;;;;;5.05;2.20;;;;;;;22.21;35.37;101843.63;5011789;28;20595;-64
2022/04/18 07:51:39;;;;;;;4.85;2.03;;;;;;;22.20;35.38;101844.59;5013049;28;20022;-64
2022/04/18 07:54:06;;;;;;;5.28;2.40;;;;;;;22.17;35.00;101839.53;5012766;28;20029;-64
2022/04/18 07:56:32;;;;;;;5.40;2.30;;;;;;;22.16;35.02;101837.88;5012151;28;20026;-66
2022/04/18 07:58:57;;;;;;;5.00;1.80;;;;;;;22.13;35.28;101839.91;5012702;28;20393;-65
2022/04/18 08:01:23;;;;;;;5.28;2.00;;;;;;;22.12;35.25;101839.09;5012983;28;20424;-66
2022/04/18 08:03:49;;;;;;;5.03;2.10;;;;;;;22.14;35.07;101837.13;5011948;28;20033;-68
2022/04/18 08:06:16;;;;;;;4.60;1.83;;;;;;;22.15;35.20;101836.19;5013093;28;20029;-65
2022/04/18 08:08:41;;;;;;;3.95;1.60;;;;;;;22.16;35.37;101834.34;5012657;28;20026;-64
2022/04/18 08:11:11;;;;;;;6.20;2.10;;;;;;;22.15;35.16;101843.31;5011517;28;20025;-68
2022/04/18 08:13:40;;;;;;;4.43;2.20;;;;;;;22.15;35.11;101840.66;5012567;28;20037;-67
2022/04/18 08:16:07;;;;;;;4.88;1.98;;;;;;;22.14;35.20;101839.78;5015592;28;20528;-68
2022/04/18 08:18:36;;;;;;;4.95;2.10;;;;;;;22.15;35.27;101844.16;5011925;28;20466;-65
2022/04/18 08:21:01;;;;;;;4.45;1.90;;;;;;;22.17;35.26;101844.03;5015486;28;20052;-66
2022/04/18 08:23:26;;;;;;;4.70;2.00;;;;;;;22.18;35.04;101841.25;5016098;28;20458;-62
2022/04/18 08:25:54;;;;;;;4.97;1.90;;;;;;;22.18;35.33;101843.06;5016218;28;20052;-63
2022/04/18 08:28:20;;;;;;;4.18;2.03;;;;;;;22.17;34.72;101838.72;5016008;28;20386;-62
2022/04/18 08:30:54;;;;;;;3.97;1.97;;;;;;;22.15;34.76;101840.66;5015783;28;20065;-62
2022/04/18 08:33:19;;;;;;;7.05;1.80;;;;;;;22.12;34.66;101841.75;5016578;28;20350;-63
2022/04/18 08:35:45;;;;;;;5.45;2.03;;;;;;;22.10;34.76;101839.22;5015924;28;20117;-63
2022/04/18 08:38:10;;;;;;;4.68;1.80;;;;;;;22.07;35.21;101842.13;5015143;28;20037;-69
2022/04/18 08:40:37;;;;;;;4.78;1.90;;;;;;;22.07;34.72;101841.28;5016622;28;20022;-69
2022/04/18 08:43:03;;;;;;;4.68;1.83;;;;;;;22.07;34.68;101841.28;5016825;28;20026;-67
2022/04/18 08:45:29;;;;;;;4.40;1.77;;;;;;;22.06;34.82;101840.44;5015536;28;20061;-63
2022/04/18 08:53:26;;;;;;;5.47;1.67;;;;;;;21.98;34.94;101848.19;5015048;28;20033;-64
2022/04/18 08:55:52;;;;;;;4.40;1.65;;;;;;;21.96;34.90;101842.16;5015067;28;20470;-64
2022/04/18 08:58:17;;;;;;;4.35;1.60;;;;;;;21.93;35.04;101835.28;5015629;28;20033;-64
2022/04/18 09:00:42;;;;;;;3.47;1.40;;;;;;;21.92;35.09;101836.28;5014763;28;20053;-65
2022/04/18 09:03:07;;;;;;;4.35;1.60;;;;;;;21.91;35.01;101837.22;5015192;28;20168;-64
2022/04/18 09:05:37;;;;;;;3.85;1.58;;;;;;;21.90;35.25;101832.06;5014423;28;20104;-65
2022/04/18 09:08:05;;;;;;;3.55;1.55;;;;;;;21.88;35.08;101834.81;5014842;28;20030;-65
2022/04/18 09:10:31;;;;;;;3.88;1.60;;;;;;;21.87;34.61;101832.31;5015611;28;20057;-65
2022/04/18 09:13:09;;;;;;;4.35;1.75;;;;;;;21.87;34.72;101829.66;5014423;28;20093;-65
2022/04/18 09:15:43;;;;;;;5.65;1.60;;;;;;;21.84;34.88;101835.19;5015292;28;20057;-65
2022/04/18 09:18:09;;;;;;;;;;;;;;;21.82;34.87;101837.97;5015435;28;20040;-65
2022/04/18 09:20:44;;;;;;;3.05;1.33;;;;;;;21.81;34.70;101827.50;5014241;28;19913;-65
2022/04/18 09:23:24;;;;;;;4.05;1.88;;;;;;;21.80;34.53;101831.97;5014748;28;20482;-65
2022/04/18 09:26:08;;;;;;;3.97;1.58;;;;;;;21.79;34.83;101829.44;5014707;28;20034;-65
2022/04/18 09:28:35;;;;;;;3.40;1.40;;;;;;;21.77;34.90;101834.88;5014261;28;20026;-65
2022/04/18 09:31:08;;;;;;;3.80;1.45;;;;;;;21.73;34.70;101826.31;5013981;28;20501;-65
2022/04/18 09:33:54;;;;;;;3.00;1.30;;;;;;;21.73;34.89;101830.78;5014435;28;20026;-65
2022/04/18 09:36:21;;;;;;;4.07;1.40;;;;;;;21.71;34.94;101824.75;5015195;28;20140;-65
2022/04/18 09:38:52;;;;;;;4.80;1.50;;;;;;;21.68;34.61;101820.56;5014885;28;20093;-65
2022/04/18 09:41:25;;;;;;;3.63;1.40;;;;;;;21.66;34.86;101818.97;5013942;28;20029;-65
2022/04/18 09:43:52;;;;;;;3.10;1.27;;;;;;;21.65;35.01;101822.59;5014638;28;20025;-65
2022/04/18 09:46:18;;;;;;;3.28;1.40;;;;;;;21.63;35.29;101819.22;5014712;28;20035;-65
2022/04/18 09:48:45;;;;;;;4.40;1.58;;;;;;;21.60;35.08;101812.34;5013782;28;20385;-65
2022/04/18 09:51:16;;;;;;;3.75;1.45;;;;;;;21.59;35.17;101818.63;5014267;28;20030;-65
2022/04/18 09:53:47;;;;;;;4.45;1.50;;;;;;;21.58;35.15;101806.34;5014362;28;20105;-65
2022/04/18 09:56:14;;;;;;;4.93;1.35;;;;;;;21.56;35.13;101811.75;5013901;28;20022;-65
2022/04/18 09:58:40;;;;;;;3.00;1.38;;;;;;;21.45;35.13;101795.00;5014562;28;20374;-65
2022/04/18 10:01:06;;;;;;;4.28;1.50;;;;;;;21.53;35.06;101803.22;5014133;28;20029;-65
2022/04/18 10:03:32;;;;;;;4.03;1.55;;;;;;;21.52;35.20;101812.13;5013692;28;20030;-65
2022/04/18 10:05:58;;;;;;;3.20;1.40;;;;;;;21.51;35.25;101807.81;5013948;28;20533;-65
2022/04/18 10:08:24;;;;;;;3.63;1.25;;;;;;;21.49;35.12;101802.63;5014042;28;20100;-65
2022/04/18 10:10:50;;;;;;;4.10;1.40;;;;;;;21.47;34.98;101809.81;5013137;28;20069;-65
2022/04/18 10:13:16;;;;;;;2.50;1.20;;;;;;;21.46;35.10;101792.25;5014078;28;20030;-65
2022/04/18 10:15:41;;;;;;;2.90;1.30;;;;;;;21.46;35.14;101796.69;5014088;28;20120;-64
2022/04/18 10:18:09;;;;;;;3.00;1.50;;;;;;;21.45;35.13;101789.72;5013085;28;20026;-64
2022/04/18 10:21:02;;;;;;;3.10;1.30;;;;;;;21.46;35.24;101791.38;5013932;28;20029;-64
2022/04/18 10:23:55;;;;;;;4.90;1.40;;;;;;;21.44;35.55;101777.41;5013509;28;20037;-64
2022/04/18 10:26:48;;;;;;;2.85;1.35;;;;;;;21.42;35.55;101782.00;5013946;28;20025;-64
2022/04/18 10:29:20;;;;;;;3.20;1.33;;;;;;;21.40;35.52;101786.59;5013795;28;20067;-64
2022/04/18 10:31:48;;;;;;;3.33;1.48;;;;;;;21.40;35.53;101776.00;5013127;28;20485;-64
2022/04/18 10:34:14;;;;;;;3.20;1.40;;;;;;;21.37;35.30;101777.91;5013957;28;20048;-64
2022/04/18 10:36:47;;;;;;;3.35;1.30;;;;;;;21.37;35.57;101772.59;5013706;28;20367;-64
2022/04/18 10:39:13;;;;;;;2.92;1.13;;;;;;;21.37;35.72;101780.53;5012759;28;20108;-65
2022/04/18 10:41:43;;;;;;;2.33;1.20;;;;;;;21.37;35.72;101772.59;5013689;28;20057;-65
2022/04/18 10:44:16;;;;;;;3.13;1.40;;;;;;;21.37;35.58;101775.25;5011653;28;20032;-65
2022/04/18 10:46:59;;;;;;;4.63;1.58;;;;;;;21.37;35.83;101771.75;5013856;28;20112;-65
2022/04/18 10:49:27;;;;;;;3.15;1.40;;;;;;;21.37;35.87;101771.75;5013686;28;20153;-65
2022/04/18 10:51:54;;;;;;;2.65;1.20;;;;;;;21.34;35.67;101772.84;5012400;28;20037;-64
2022/04/18 10:54:25;;;;;;;2.80;1.10;;;;;;;21.35;35.70;101774.53;5013363;28;20022;-65
2022/04/18 10:56:51;;;;;;;3.03;1.20;;;;;;;21.34;35.93;101758.75;5013307;28;20025;-65
2022/04/18 10:59:19;;;;;;;2.30;1.20;;;;;;;21.31;35.94;101762.47;5012809;28;20040;-65
2022/04/18 11:01:45;;;;;;;2.55;1.10;;;;;;;21.31;35.70;101754.53;5013317;28;20133;-65
2022/04/18 11:04:14;;;;;;;3.40;1.20;;;;;;;21.30;35.73;101752.88;5013035;28;20053;-64
2022/04/18 11:06:40;;;;;;;2.17;1.15;;;;;;;21.30;35.69;101752.88;5012489;28;20469;-64
2022/04/18 11:09:10;;;;;;;2.65;1.10;;;;;;;21.32;35.74;101764.19;5012713;28;20493;-64
2022/04/18 11:11:54;;;;;;;3.20;1.20;;;;;;;21.33;35.62;101754.41;5013157;28;20037;-64
2022/04/18 11:14:23;;;;;;;2.83;1.30;;;;;;;21.33;35.71;101744.66;5012562;28;20525;-65
2022/04/18 11:16:57;;;;;;;3.10;1.25;;;;;;;21.33;35.63;101743.78;5012847;28;20042;-64
2022/04/18 11:19:25;;;;;;;3.17;1.30;;;;;;;21.34;35.66;101737.53;5012621;28;20040;-64
2022/04/18 11:22:00;;;;;;;2.88;1.52;;;;;;;21.34;35.69;101743.69;5012767;28;20030;-65
2022/04/18 11:24:48;;;;;;;3.30;1.45;;;;;;;21.35;35.55;101736.59;5013225;28;20113;-65
2022/04/18 11:27:17;;;;;;;2.63;1.15;;;;;;;21.35;35.68;101731.28;5012199;28;20363;-65
2022/04/18 11:29:51;;;;;;;3.15;1.30;;;;;;;21.35;35.62;101734.75;5013052;28;20117;-65
2022/04/18 11:32:19;;;;;;;2.60;1.23;;;;;;;21.34;35.41;101730.41;5013226;28;20157;-65
2022/04/18 11:34:49;;;;;;;3.13;1.40;;;;;;;21.34;35.60;101730.41;5012277;28;20058;-65
2022/04/18 11:37:33;;;;;;;3.35;1.30;;;;;;;21.34;35.69;101733.06;5013041;28;20026;-65
2022/04/18 11:40:04;;;;;;;3.97;1.23;;;;;;;21.36;35.40;101736.47;5011379;28;20022;-65